sensor_id;sensor_type;location;lat;lon;timestamp;temperature;humidity
42913;DHT22;50720;54.324;18.558;2023-09-08T00:00:01;14.80;99.90
42913;DHT22;50720;54.324;18.558;2023-09-08T00:03:10;14.70;99.90
42913;DHT22;50720;54.324;18.558;2023-09-08T00:05:57;14.80;99.90
42913;DHT22;50720;54.324;18.558;2023-09-08T00:08:44;14.70;99.90
42913;DHT22;50720;54.324;18.558;2023-09-08T00:11:31;14.70;99.90
42913;DHT22;50720;54.324;18.558;2023-09-08T00:14:18;14.60;99.90
42913;DHT22;50720;54.324;18.558;2023-09-08T00:17:05;14.60;99.90
42913;DHT22;50720;54.324;18.558;2023-09-08T00:19:53;14.60;99.90
42913;DHT22;50720;54.324;18.558;2023-09-08T00:22:40;14.60;99.90
42913;DHT22;50720;54.324;18.558;2023-09-08T00:25:27;14.50;99.90
42913;DHT22;50720;54.324;18.558;2023-09-08T00:28:14;14.50;99.90
42913;DHT22;50720;54.324;18.558;2023-09-08T00:31:01;14.70;99.90
42913;DHT22;50720;54.324;18.558;2023-09-08T00:33:48;14.80;99.90
42913;DHT22;50720;54.324;18.558;2023-09-08T00:36:37;14.60;99.90
42913;DHT22;50720;54.324;18.558;2023-09-08T00:39:24;14.60;99.90
42913;DHT22;50720;54.324;18.558;2023-09-08T00:42:11;14.80;99.90
42913;DHT22;50720;54.324;18.558;2023-09-08T00:44:58;14.80;99.90
42913;DHT22;50720;54.324;18.558;2023-09-08T00:47:45;14.80;99.90
42913;DHT22;50720;54.324;18.558;2023-09-08T00:50:32;14.80;99.90
42913;DHT22;50720;54.324;18.558;2023-09-08T00:53:21;14.80;99.90
42913;DHT22;50720;54.324;18.558;2023-09-08T00:56:09;14.80;99.90
42913;DHT22;50720;54.324;18.558;2023-09-08T00:58:58;14.70;99.90
42913;DHT22;50720;54.324;18.558;2023-09-08T01:01:45;14.70;99.90
42913;DHT22;50720;54.324;18.558;2023-09-08T01:04:32;14.70;99.90
42913;DHT22;50720;54.324;18.558;2023-09-08T01:07:20;14.60;99.90
42913;DHT22;50720;54.324;18.558;2023-09-08T01:10:10;14.60;99.90
42913;DHT22;50720;54.324;18.558;2023-09-08T01:12:57;14.50;99.90
42913;DHT22;50720;54.324;18.558;2023-09-08T01:15:44;14.50;99.90
42913;DHT22;50720;54.324;18.558;2023-09-08T01:18:32;14.50;99.90
42913;DHT22;50720;54.324;18.558;2023-09-08T01:25:06;14.50;99.90
42913;DHT22;50720;54.324;18.558;2023-09-08T01:27:54;14.50;99.90
42913;DHT22;50720;54.324;18.558;2023-09-08T01:30:41;14.40;99.90
42913;DHT22;50720;54.324;18.558;2023-09-08T01:33:29;14.40;99.90
42913;DHT22;50720;54.324;18.558;2023-09-08T01:36:17;14.40;99.90
42913;DHT22;50720;54.324;18.558;2023-09-08T01:39:04;14.40;99.90
42913;DHT22;50720;54.324;18.558;2023-09-08T01:41:53;14.40;99.90
42913;DHT22;50720;54.324;18.558;2023-09-08T01:44:40;14.40;99.90
42913;DHT22;50720;54.324;18.558;2023-09-08T01:47:29;14.50;99.90
42913;DHT22;50720;54.324;18.558;2023-09-08T01:50:17;14.40;99.90
42913;DHT22;50720;54.324;18.558;2023-09-08T01:53:07;14.40;99.90
42913;DHT22;50720;54.324;18.558;2023-09-08T01:55:53;14.40;99.90
42913;DHT22;50720;54.324;18.558;2023-09-08T01:58:42;14.30;99.90
42913;DHT22;50720;54.324;18.558;2023-09-08T02:01:29;14.30;99.90
42913;DHT22;50720;54.324;18.558;2023-09-08T02:04:16;14.30;99.90
42913;DHT22;50720;54.324;18.558;2023-09-08T02:07:03;14.20;99.90
42913;DHT22;50720;54.324;18.558;2023-09-08T02:09:51;14.20;99.90
42913;DHT22;50720;54.324;18.558;2023-09-08T02:12:38;14.30;99.90
42913;DHT22;50720;54.324;18.558;2023-09-08T02:15:26;14.20;99.90
42913;DHT22;50720;54.324;18.558;2023-09-08T02:18:13;14.20;99.90
42913;DHT22;50720;54.324;18.558;2023-09-08T02:21:01;14.30;99.90
42913;DHT22;50720;54.324;18.558;2023-09-08T02:23:48;14.30;99.90
42913;DHT22;50720;54.324;18.558;2023-09-08T02:26:35;14.30;99.90
42913;DHT22;50720;54.324;18.558;2023-09-08T02:29:22;14.20;99.90
42913;DHT22;50720;54.324;18.558;2023-09-08T02:32:11;14.30;99.90
42913;DHT22;50720;54.324;18.558;2023-09-08T02:34:59;14.30;99.90
42913;DHT22;50720;54.324;18.558;2023-09-08T02:37:46;14.30;99.90
42913;DHT22;50720;54.324;18.558;2023-09-08T02:40:33;14.20;99.90
42913;DHT22;50720;54.324;18.558;2023-09-08T02:43:20;14.30;99.90
42913;DHT22;50720;54.324;18.558;2023-09-08T02:46:07;14.30;99.90
42913;DHT22;50720;54.324;18.558;2023-09-08T02:48:57;14.30;99.90
42913;DHT22;50720;54.324;18.558;2023-09-08T02:51:43;14.10;99.90
42913;DHT22;50720;54.324;18.558;2023-09-08T02:54:30;14.10;99.90
42913;DHT22;50720;54.324;18.558;2023-09-08T02:57:17;14.00;99.90
42913;DHT22;50720;54.324;18.558;2023-09-08T03:00:06;14.00;99.90
42913;DHT22;50720;54.324;18.558;2023-09-08T03:02:53;14.00;99.90
42913;DHT22;50720;54.324;18.558;2023-09-08T03:05:43;14.00;99.90
42913;DHT22;50720;54.324;18.558;2023-09-08T03:08:29;14.00;99.90
42913;DHT22;50720;54.324;18.558;2023-09-08T03:11:17;14.00;99.90
42913;DHT22;50720;54.324;18.558;2023-09-08T03:14:03;14.10;99.90
42913;DHT22;50720;54.324;18.558;2023-09-08T03:16:51;13.90;99.90
42913;DHT22;50720;54.324;18.558;2023-09-08T03:19:38;13.90;99.90
42913;DHT22;50720;54.324;18.558;2023-09-08T03:22:26;13.80;99.90
42913;DHT22;50720;54.324;18.558;2023-09-08T03:25:13;13.80;99.90
42913;DHT22;50720;54.324;18.558;2023-09-08T03:28:01;13.80;99.90
42913;DHT22;50720;54.324;18.558;2023-09-08T03:30:48;13.80;99.90
42913;DHT22;50720;54.324;18.558;2023-09-08T03:33:35;13.80;99.90
42913;DHT22;50720;54.324;18.558;2023-09-08T03:36:22;13.80;99.90
42913;DHT22;50720;54.324;18.558;2023-09-08T03:39:11;13.70;99.90
42913;DHT22;50720;54.324;18.558;2023-09-08T03:41:58;13.70;99.90
42913;DHT22;50720;54.324;18.558;2023-09-08T03:47:33;13.70;99.90
42913;DHT22;50720;54.324;18.558;2023-09-08T03:50:20;13.60;99.90
42913;DHT22;50720;54.324;18.558;2023-09-08T03:53:07;13.60;99.90
42913;DHT22;50720;54.324;18.558;2023-09-08T03:55:56;13.70;99.90
42913;DHT22;50720;54.324;18.558;2023-09-08T03:58:43;13.60;99.90
42913;DHT22;50720;54.324;18.558;2023-09-08T04:01:30;13.60;99.90
42913;DHT22;50720;54.324;18.558;2023-09-08T04:04:16;13.60;99.90
42913;DHT22;50720;54.324;18.558;2023-09-08T04:07:05;13.50;99.90
42913;DHT22;50720;54.324;18.558;2023-09-08T04:09:52;13.50;99.90
42913;DHT22;50720;54.324;18.558;2023-09-08T04:12:41;13.50;99.90
42913;DHT22;50720;54.324;18.558;2023-09-08T04:15:28;13.40;99.90
42913;DHT22;50720;54.324;18.558;2023-09-08T04:18:15;13.40;99.90
42913;DHT22;50720;54.324;18.558;2023-09-08T04:21:02;13.40;99.90
42913;DHT22;50720;54.324;18.558;2023-09-08T04:23:49;13.40;99.90
42913;DHT22;50720;54.324;18.558;2023-09-08T04:26:36;13.40;99.90
42913;DHT22;50720;54.324;18.558;2023-09-08T04:29:25;13.40;99.90
42913;DHT22;50720;54.324;18.558;2023-09-08T04:32:12;13.50;99.90
42913;DHT22;50720;54.324;18.558;2023-09-08T04:34:59;13.50;99.90
42913;DHT22;50720;54.324;18.558;2023-09-08T04:37:46;13.50;99.90
42913;DHT22;50720;54.324;18.558;2023-09-08T04:40:34;13.60;99.90
42913;DHT22;50720;54.324;18.558;2023-09-08T04:43:21;13.60;99.90
42913;DHT22;50720;54.324;18.558;2023-09-08T04:46:10;13.70;99.90
42913;DHT22;50720;54.324;18.558;2023-09-08T04:48:57;13.80;99.90
42913;DHT22;50720;54.324;18.558;2023-09-08T04:51:44;13.90;99.90
42913;DHT22;50720;54.324;18.558;2023-09-08T04:54:31;14.30;99.90
42913;DHT22;50720;54.324;18.558;2023-09-08T04:57:19;14.30;99.90
42913;DHT22;50720;54.324;18.558;2023-09-08T05:00:07;14.60;99.90
42913;DHT22;50720;54.324;18.558;2023-09-08T05:02:55;14.60;99.90
42913;DHT22;50720;54.324;18.558;2023-09-08T05:05:42;14.90;99.90
42913;DHT22;50720;54.324;18.558;2023-09-08T05:08:30;15.00;99.90
42913;DHT22;50720;54.324;18.558;2023-09-08T05:11:17;15.10;99.90
42913;DHT22;50720;54.324;18.558;2023-09-08T05:14:04;15.10;99.90
42913;DHT22;50720;54.324;18.558;2023-09-08T05:16:51;15.40;99.90
42913;DHT22;50720;54.324;18.558;2023-09-08T05:19:42;15.40;99.90
42913;DHT22;50720;54.324;18.558;2023-09-08T05:22:29;15.60;99.90
42913;DHT22;50720;54.324;18.558;2023-09-08T05:25:17;15.50;99.90
42913;DHT22;50720;54.324;18.558;2023-09-08T05:28:04;15.90;99.90
42913;DHT22;50720;54.324;18.558;2023-09-08T05:30:52;16.00;99.90
42913;DHT22;50720;54.324;18.558;2023-09-08T05:33:39;16.20;99.90
42913;DHT22;50720;54.324;18.558;2023-09-08T05:36:27;16.30;99.90
42913;DHT22;50720;54.324;18.558;2023-09-08T05:39:15;16.70;99.90
42913;DHT22;50720;54.324;18.558;2023-09-08T05:42:05;16.70;99.90
42913;DHT22;50720;54.324;18.558;2023-09-08T05:44:52;16.90;99.90
42913;DHT22;50720;54.324;18.558;2023-09-08T05:47:40;17.40;99.90
42913;DHT22;50720;54.324;18.558;2023-09-08T05:50:27;17.30;99.90
42913;DHT22;50720;54.324;18.558;2023-09-08T05:53:15;17.60;99.90
42913;DHT22;50720;54.324;18.558;2023-09-08T05:56:02;17.70;99.90
42913;DHT22;50720;54.324;18.558;2023-09-08T05:58:50;18.10;99.90
42913;DHT22;50720;54.324;18.558;2023-09-08T06:01:37;18.30;99.90
42913;DHT22;50720;54.324;18.558;2023-09-08T06:04:25;18.20;99.90
42913;DHT22;50720;54.324;18.558;2023-09-08T06:07:11;18.40;99.90
42913;DHT22;50720;54.324;18.558;2023-09-08T06:10:00;18.50;99.90
42913;DHT22;50720;54.324;18.558;2023-09-08T06:12:47;18.60;99.90
42913;DHT22;50720;54.324;18.558;2023-09-08T06:15:36;18.70;99.90
42913;DHT22;50720;54.324;18.558;2023-09-08T06:18:23;18.90;99.90
42913;DHT22;50720;54.324;18.558;2023-09-08T06:21:10;19.20;99.90
42913;DHT22;50720;54.324;18.558;2023-09-08T06:23:57;19.10;99.90
42913;DHT22;50720;54.324;18.558;2023-09-08T06:26:46;19.20;99.90
42913;DHT22;50720;54.324;18.558;2023-09-08T06:29:34;19.30;99.90
42913;DHT22;50720;54.324;18.558;2023-09-08T06:32:22;19.50;99.90
42913;DHT22;50720;54.324;18.558;2023-09-08T06:35:08;19.40;99.90
42913;DHT22;50720;54.324;18.558;2023-09-08T06:37:55;19.80;99.90
42913;DHT22;50720;54.324;18.558;2023-09-08T06:40:42;19.80;99.90
42913;DHT22;50720;54.324;18.558;2023-09-08T06:43:31;20.00;99.90
42913;DHT22;50720;54.324;18.558;2023-09-08T06:46:18;20.00;99.90
42913;DHT22;50720;54.324;18.558;2023-09-08T06:49:06;20.20;99.90
42913;DHT22;50720;54.324;18.558;2023-09-08T06:51:52;20.50;99.90
42913;DHT22;50720;54.324;18.558;2023-09-08T06:54:40;20.50;99.90
42913;DHT22;50720;54.324;18.558;2023-09-08T06:57:26;20.70;99.90
42913;DHT22;50720;54.324;18.558;2023-09-08T07:00:16;20.70;99.90
42913;DHT22;50720;54.324;18.558;2023-09-08T07:03:05;20.80;99.90
42913;DHT22;50720;54.324;18.558;2023-09-08T07:05:53;21.10;99.90
42913;DHT22;50720;54.324;18.558;2023-09-08T07:08:40;21.40;99.90
42913;DHT22;50720;54.324;18.558;2023-09-08T07:11:27;21.50;99.90
42913;DHT22;50720;54.324;18.558;2023-09-08T07:14:15;21.60;99.90
42913;DHT22;50720;54.324;18.558;2023-09-08T07:17:04;21.80;99.90
42913;DHT22;50720;54.324;18.558;2023-09-08T07:19:51;21.90;99.90
42913;DHT22;50720;54.324;18.558;2023-09-08T07:22:38;22.00;99.90
42913;DHT22;50720;54.324;18.558;2023-09-08T07:25:25;22.00;99.90
42913;DHT22;50720;54.324;18.558;2023-09-08T07:28:12;22.10;99.90
42913;DHT22;50720;54.324;18.558;2023-09-08T07:31:01;22.20;99.90
42913;DHT22;50720;54.324;18.558;2023-09-08T07:33:50;22.30;99.90
42913;DHT22;50720;54.324;18.558;2023-09-08T07:36:37;22.40;99.90
42913;DHT22;50720;54.324;18.558;2023-09-08T07:39:25;22.50;99.90
42913;DHT22;50720;54.324;18.558;2023-09-08T07:42:12;22.50;99.90
42913;DHT22;50720;54.324;18.558;2023-09-08T07:44:59;22.60;99.90
42913;DHT22;50720;54.324;18.558;2023-09-08T07:47:46;22.70;99.90
42913;DHT22;50720;54.324;18.558;2023-09-08T07:50:35;22.80;99.90
42913;DHT22;50720;54.324;18.558;2023-09-08T07:53:21;22.90;99.90
42913;DHT22;50720;54.324;18.558;2023-09-08T07:56:08;23.00;99.90
42913;DHT22;50720;54.324;18.558;2023-09-08T07:58:55;23.10;99.90
42913;DHT22;50720;54.324;18.558;2023-09-08T08:01:42;23.20;99.90
42913;DHT22;50720;54.324;18.558;2023-09-08T08:04:29;23.30;99.90
42913;DHT22;50720;54.324;18.558;2023-09-08T08:07:18;23.40;99.90
42913;DHT22;50720;54.324;18.558;2023-09-08T08:10:06;23.50;99.90
42913;DHT22;50720;54.324;18.558;2023-09-08T08:12:54;23.50;99.90
42913;DHT22;50720;54.324;18.558;2023-09-08T08:15:41;23.50;99.90
42913;DHT22;50720;54.324;18.558;2023-09-08T08:18:28;23.50;99.90
42913;DHT22;50720;54.324;18.558;2023-09-08T08:21:15;23.70;99.90
42913;DHT22;50720;54.324;18.558;2023-09-08T08:24:04;23.70;99.90
42913;DHT22;50720;54.324;18.558;2023-09-08T08:26:51;23.70;99.90
42913;DHT22;50720;54.324;18.558;2023-09-08T08:29:39;23.80;99.90
42913;DHT22;50720;54.324;18.558;2023-09-08T08:32:26;23.90;99.90
42913;DHT22;50720;54.324;18.558;2023-09-08T08:35:13;23.80;99.90
42913;DHT22;50720;54.324;18.558;2023-09-08T08:38:00;24.00;99.90
42913;DHT22;50720;54.324;18.558;2023-09-08T08:40:49;24.10;99.90
42913;DHT22;50720;54.324;18.558;2023-09-08T08:43:36;24.10;99.90
42913;DHT22;50720;54.324;18.558;2023-09-08T08:46:24;24.10;99.90
42913;DHT22;50720;54.324;18.558;2023-09-08T08:49:13;24.00;99.90
42913;DHT22;50720;54.324;18.558;2023-09-08T08:52:02;24.30;99.90
42913;DHT22;50720;54.324;18.558;2023-09-08T08:54:51;24.20;99.90
42913;DHT22;50720;54.324;18.558;2023-09-08T08:57:41;24.20;99.90
42913;DHT22;50720;54.324;18.558;2023-09-08T09:00:28;24.20;99.90
42913;DHT22;50720;54.324;18.558;2023-09-08T09:03:16;24.50;99.90
42913;DHT22;50720;54.324;18.558;2023-09-08T09:06:02;24.50;99.90
42913;DHT22;50720;54.324;18.558;2023-09-08T09:08:50;24.50;99.90
42913;DHT22;50720;54.324;18.558;2023-09-08T09:11:37;24.50;99.90
42913;DHT22;50720;54.324;18.558;2023-09-08T09:14:26;24.50;99.90
42913;DHT22;50720;54.324;18.558;2023-09-08T09:17:14;24.40;99.90
42913;DHT22;50720;54.324;18.558;2023-09-08T09:20:19;24.40;99.90
42913;DHT22;50720;54.324;18.558;2023-09-08T09:23:06;24.40;99.90
42913;DHT22;50720;54.324;18.558;2023-09-08T09:25:54;24.50;99.90
42913;DHT22;50720;54.324;18.558;2023-09-08T09:28:47;24.60;99.90
42913;DHT22;50720;54.324;18.558;2023-09-08T09:31:35;24.90;99.90
42913;DHT22;50720;54.324;18.558;2023-09-08T09:34:23;24.90;99.90
42913;DHT22;50720;54.324;18.558;2023-09-08T09:37:10;24.90;99.90
42913;DHT22;50720;54.324;18.558;2023-09-08T09:39:59;25.00;99.90
42913;DHT22;50720;54.324;18.558;2023-09-08T09:42:49;25.10;99.90
42913;DHT22;50720;54.324;18.558;2023-09-08T09:45:37;25.10;99.90
42913;DHT22;50720;54.324;18.558;2023-09-08T09:48:27;25.20;99.90
42913;DHT22;50720;54.324;18.558;2023-09-08T09:51:18;25.30;99.90
42913;DHT22;50720;54.324;18.558;2023-09-08T09:54:06;25.30;99.90
42913;DHT22;50720;54.324;18.558;2023-09-08T09:56:53;25.60;99.90
42913;DHT22;50720;54.324;18.558;2023-09-08T09:59:41;25.30;99.90
42913;DHT22;50720;54.324;18.558;2023-09-08T10:02:28;25.40;99.90
42913;DHT22;50720;54.324;18.558;2023-09-08T10:05:17;25.40;99.90
42913;DHT22;50720;54.324;18.558;2023-09-08T10:08:05;25.50;99.90
42913;DHT22;50720;54.324;18.558;2023-09-08T10:10:52;25.50;99.90
42913;DHT22;50720;54.324;18.558;2023-09-08T10:13:43;25.80;99.90
42913;DHT22;50720;54.324;18.558;2023-09-08T10:16:35;25.90;99.90
42913;DHT22;50720;54.324;18.558;2023-09-08T10:19:23;26.00;99.90
42913;DHT22;50720;54.324;18.558;2023-09-08T10:22:15;26.00;99.90
42913;DHT22;50720;54.324;18.558;2023-09-08T10:25:05;26.10;99.90
42913;DHT22;50720;54.324;18.558;2023-09-08T10:27:53;26.20;99.90
42913;DHT22;50720;54.324;18.558;2023-09-08T10:30:41;26.20;99.90
42913;DHT22;50720;54.324;18.558;2023-09-08T10:33:29;26.20;99.90
42913;DHT22;50720;54.324;18.558;2023-09-08T10:36:16;26.20;99.90
42913;DHT22;50720;54.324;18.558;2023-09-08T10:39:29;26.30;99.90
42913;DHT22;50720;54.324;18.558;2023-09-08T10:42:22;26.50;99.90
42913;DHT22;50720;54.324;18.558;2023-09-08T10:45:16;26.60;99.90
42913;DHT22;50720;54.324;18.558;2023-09-08T10:48:03;27.10;99.90
42913;DHT22;50720;54.324;18.558;2023-09-08T10:50:51;27.30;99.90
42913;DHT22;50720;54.324;18.558;2023-09-08T10:53:38;27.80;99.90
42913;DHT22;50720;54.324;18.558;2023-09-08T10:56:48;28.40;99.90
42913;DHT22;50720;54.324;18.558;2023-09-08T10:59:38;28.50;99.90
42913;DHT22;50720;54.324;18.558;2023-09-08T11:02:36;28.40;99.90
42913;DHT22;50720;54.324;18.558;2023-09-08T11:05:23;29.00;99.90
42913;DHT22;50720;54.324;18.558;2023-09-08T11:08:10;29.50;99.90
42913;DHT22;50720;54.324;18.558;2023-09-08T11:10:59;29.80;99.90
42913;DHT22;50720;54.324;18.558;2023-09-08T11:13:48;29.70;99.90
42913;DHT22;50720;54.324;18.558;2023-09-08T11:16:35;29.70;99.90
42913;DHT22;50720;54.324;18.558;2023-09-08T11:19:23;30.40;99.90
42913;DHT22;50720;54.324;18.558;2023-09-08T11:22:10;30.80;99.90
42913;DHT22;50720;54.324;18.558;2023-09-08T11:24:58;31.30;99.90
42913;DHT22;50720;54.324;18.558;2023-09-08T11:27:45;31.30;96.90
42913;DHT22;50720;54.324;18.558;2023-09-08T11:30:34;31.20;97.00
42913;DHT22;50720;54.324;18.558;2023-09-08T11:33:22;31.30;98.70
42913;DHT22;50720;54.324;18.558;2023-09-08T11:36:13;32.40;96.30
42913;DHT22;50720;54.324;18.558;2023-09-08T11:39:00;32.40;95.10
42913;DHT22;50720;54.324;18.558;2023-09-08T11:41:48;32.10;95.50
42913;DHT22;50720;54.324;18.558;2023-09-08T11:44:35;31.80;96.30
42913;DHT22;50720;54.324;18.558;2023-09-08T11:47:25;31.50;96.50
42913;DHT22;50720;54.324;18.558;2023-09-08T11:50:12;31.90;96.00
42913;DHT22;50720;54.324;18.558;2023-09-08T11:53:01;32.10;96.50
42913;DHT22;50720;54.324;18.558;2023-09-08T11:55:47;32.20;96.40
42913;DHT22;50720;54.324;18.558;2023-09-08T11:58:35;31.90;95.00
42913;DHT22;50720;54.324;18.558;2023-09-08T12:01:22;31.70;95.90
42913;DHT22;50720;54.324;18.558;2023-09-08T12:04:18;31.90;95.40
42913;DHT22;50720;54.324;18.558;2023-09-08T12:07:06;31.50;96.60
42913;DHT22;50720;54.324;18.558;2023-09-08T12:09:54;31.30;97.50
42913;DHT22;50720;54.324;18.558;2023-09-08T12:12:45;31.80;96.80
42913;DHT22;50720;54.324;18.558;2023-09-08T12:15:33;31.90;95.80
42913;DHT22;50720;54.324;18.558;2023-09-08T12:18:37;31.80;95.20
42913;DHT22;50720;54.324;18.558;2023-09-08T12:21:26;32.30;94.80
42913;DHT22;50720;54.324;18.558;2023-09-08T12:24:13;32.40;94.00
42913;DHT22;50720;54.324;18.558;2023-09-08T12:27:02;32.80;93.80
42913;DHT22;50720;54.324;18.558;2023-09-08T12:29:56;32.60;94.60
42913;DHT22;50720;54.324;18.558;2023-09-08T12:32:46;33.60;91.80
42913;DHT22;50720;54.324;18.558;2023-09-08T12:35:34;33.70;91.60
42913;DHT22;50720;54.324;18.558;2023-09-08T12:38:23;33.20;90.50
42913;DHT22;50720;54.324;18.558;2023-09-08T12:41:10;33.20;91.40
42913;DHT22;50720;54.324;18.558;2023-09-08T12:43:57;33.20;91.10
42913;DHT22;50720;54.324;18.558;2023-09-08T12:46:45;33.60;90.50
42913;DHT22;50720;54.324;18.558;2023-09-08T12:49:32;33.40;89.00
42913;DHT22;50720;54.324;18.558;2023-09-08T12:52:19;32.90;90.00
42913;DHT22;50720;54.324;18.558;2023-09-08T12:55:08;32.90;90.30
42913;DHT22;50720;54.324;18.558;2023-09-08T12:57:55;32.70;90.80
42913;DHT22;50720;54.324;18.558;2023-09-08T13:00:43;32.90;90.20
42913;DHT22;50720;54.324;18.558;2023-09-08T13:03:30;33.10;89.50
42913;DHT22;50720;54.324;18.558;2023-09-08T13:06:17;33.30;89.90
42913;DHT22;50720;54.324;18.558;2023-09-08T13:09:04;33.30;88.90
42913;DHT22;50720;54.324;18.558;2023-09-08T13:11:52;33.20;88.90
42913;DHT22;50720;54.324;18.558;2023-09-08T13:14:39;33.00;89.50
42913;DHT22;50720;54.324;18.558;2023-09-08T13:17:27;33.00;88.10
42913;DHT22;50720;54.324;18.558;2023-09-08T13:20:13;33.00;88.60
42913;DHT22;50720;54.324;18.558;2023-09-08T13:23:01;32.80;88.60
42913;DHT22;50720;54.324;18.558;2023-09-08T13:25:48;32.50;89.70
42913;DHT22;50720;54.324;18.558;2023-09-08T13:28:36;32.50;90.20
42913;DHT22;50720;54.324;18.558;2023-09-08T13:31:23;32.80;90.10
42913;DHT22;50720;54.324;18.558;2023-09-08T13:34:10;32.40;88.30
42913;DHT22;50720;54.324;18.558;2023-09-08T13:36:57;32.40;89.30
42913;DHT22;50720;54.324;18.558;2023-09-08T13:39:45;32.40;88.80
42913;DHT22;50720;54.324;18.558;2023-09-08T13:42:32;32.50;88.40
42913;DHT22;50720;54.324;18.558;2023-09-08T13:45:21;32.50;89.00
42913;DHT22;50720;54.324;18.558;2023-09-08T13:48:08;32.80;88.70
42913;DHT22;50720;54.324;18.558;2023-09-08T13:50:55;32.90;87.60
42913;DHT22;50720;54.324;18.558;2023-09-08T13:53:42;32.80;87.50
42913;DHT22;50720;54.324;18.558;2023-09-08T13:56:29;32.80;88.20
42913;DHT22;50720;54.324;18.558;2023-09-08T13:59:16;32.90;87.90
42913;DHT22;50720;54.324;18.558;2023-09-08T14:02:05;32.70;88.30
42913;DHT22;50720;54.324;18.558;2023-09-08T14:04:51;32.40;87.70
42913;DHT22;50720;54.324;18.558;2023-09-08T14:07:38;32.60;86.70
42913;DHT22;50720;54.324;18.558;2023-09-08T14:10:26;32.50;87.00
42913;DHT22;50720;54.324;18.558;2023-09-08T14:13:13;32.40;87.60
42913;DHT22;50720;54.324;18.558;2023-09-08T14:16:00;32.40;87.80
42913;DHT22;50720;54.324;18.558;2023-09-08T14:18:49;31.80;89.80
42913;DHT22;50720;54.324;18.558;2023-09-08T14:21:36;31.80;90.10
42913;DHT22;50720;54.324;18.558;2023-09-08T14:24:24;31.90;88.50
42913;DHT22;50720;54.324;18.558;2023-09-08T14:27:11;31.90;88.70
42913;DHT22;50720;54.324;18.558;2023-09-08T14:29:58;32.20;89.10
42913;DHT22;50720;54.324;18.558;2023-09-08T14:32:45;32.10;87.70
42913;DHT22;50720;54.324;18.558;2023-09-08T14:35:35;32.00;88.30
42913;DHT22;50720;54.324;18.558;2023-09-08T14:38:22;32.10;88.60
42913;DHT22;50720;54.324;18.558;2023-09-08T14:41:10;31.90;88.90
42913;DHT22;50720;54.324;18.558;2023-09-08T14:43:57;32.10;88.60
42913;DHT22;50720;54.324;18.558;2023-09-08T14:46:44;31.90;89.00
42913;DHT22;50720;54.324;18.558;2023-09-08T14:49:31;31.60;89.50
42913;DHT22;50720;54.324;18.558;2023-09-08T14:52:20;31.70;89.70
42913;DHT22;50720;54.324;18.558;2023-09-08T14:55:07;32.00;89.50
42913;DHT22;50720;54.324;18.558;2023-09-08T14:57:54;31.70;89.40
42913;DHT22;50720;54.324;18.558;2023-09-08T15:00:42;31.80;89.80
42913;DHT22;50720;54.324;18.558;2023-09-08T15:03:30;31.90;89.20
42913;DHT22;50720;54.324;18.558;2023-09-08T15:06:17;31.80;90.00
42913;DHT22;50720;54.324;18.558;2023-09-08T15:09:06;31.60;89.50
42913;DHT22;50720;54.324;18.558;2023-09-08T15:11:52;31.70;89.90
42913;DHT22;50720;54.324;18.558;2023-09-08T15:14:40;31.20;90.40
42913;DHT22;50720;54.324;18.558;2023-09-08T15:17:27;30.40;91.10
42913;DHT22;50720;54.324;18.558;2023-09-08T15:20:14;30.30;91.30
42913;DHT22;50720;54.324;18.558;2023-09-08T15:23:01;30.50;92.00
42913;DHT22;50720;54.324;18.558;2023-09-08T15:25:55;30.70;91.60
42913;DHT22;50720;54.324;18.558;2023-09-08T15:28:42;30.60;91.40
42913;DHT22;50720;54.324;18.558;2023-09-08T15:31:30;30.40;92.00
42913;DHT22;50720;54.324;18.558;2023-09-08T15:34:17;30.40;92.20
42913;DHT22;50720;54.324;18.558;2023-09-08T15:37:04;30.10;92.40
42913;DHT22;50720;54.324;18.558;2023-09-08T15:39:52;30.00;92.80
42913;DHT22;50720;54.324;18.558;2023-09-08T15:42:40;29.30;94.90
42913;DHT22;50720;54.324;18.558;2023-09-08T15:45:28;29.30;95.40
42913;DHT22;50720;54.324;18.558;2023-09-08T15:48:15;29.20;96.10
42913;DHT22;50720;54.324;18.558;2023-09-08T15:51:02;29.10;96.30
42913;DHT22;50720;54.324;18.558;2023-09-08T15:53:49;29.20;96.60
42913;DHT22;50720;54.324;18.558;2023-09-08T15:56:37;29.20;97.10
42913;DHT22;50720;54.324;18.558;2023-09-08T15:59:26;28.60;98.50
42913;DHT22;50720;54.324;18.558;2023-09-08T16:02:13;28.60;98.90
42913;DHT22;50720;54.324;18.558;2023-09-08T16:05:00;28.20;99.90
42913;DHT22;50720;54.324;18.558;2023-09-08T16:07:47;27.80;99.90
42913;DHT22;50720;54.324;18.558;2023-09-08T16:10:34;26.90;99.90
42913;DHT22;50720;54.324;18.558;2023-09-08T16:13:21;26.80;99.90
42913;DHT22;50720;54.324;18.558;2023-09-08T16:16:10;26.50;99.90
42913;DHT22;50720;54.324;18.558;2023-09-08T16:18:57;26.10;99.90
42913;DHT22;50720;54.324;18.558;2023-09-08T16:21:44;25.80;99.90
42913;DHT22;50720;54.324;18.558;2023-09-08T16:24:31;25.50;99.90
42913;DHT22;50720;54.324;18.558;2023-09-08T16:27:18;25.30;99.90
42913;DHT22;50720;54.324;18.558;2023-09-08T16:30:06;25.20;99.90
42913;DHT22;50720;54.324;18.558;2023-09-08T16:32:55;25.00;99.90
42913;DHT22;50720;54.324;18.558;2023-09-08T16:35:42;24.80;99.90
42913;DHT22;50720;54.324;18.558;2023-09-08T16:38:29;24.70;99.90
42913;DHT22;50720;54.324;18.558;2023-09-08T16:41:18;24.50;99.90
42913;DHT22;50720;54.324;18.558;2023-09-08T16:44:05;24.10;99.90
42913;DHT22;50720;54.324;18.558;2023-09-08T16:46:53;23.90;99.90
42913;DHT22;50720;54.324;18.558;2023-09-08T16:49:41;23.70;99.90
42913;DHT22;50720;54.324;18.558;2023-09-08T16:52:28;23.50;99.90
42913;DHT22;50720;54.324;18.558;2023-09-08T16:55:15;23.30;99.90
42913;DHT22;50720;54.324;18.558;2023-09-08T16:58:02;23.20;99.90
42913;DHT22;50720;54.324;18.558;2023-09-08T17:00:51;23.10;99.90
42913;DHT22;50720;54.324;18.558;2023-09-08T17:03:38;22.80;99.90
42913;DHT22;50720;54.324;18.558;2023-09-08T17:06:26;22.90;99.90
42913;DHT22;50720;54.324;18.558;2023-09-08T17:09:14;22.80;99.90
42913;DHT22;50720;54.324;18.558;2023-09-08T17:12:01;22.40;99.90
42913;DHT22;50720;54.324;18.558;2023-09-08T17:14:49;22.30;99.90
42913;DHT22;50720;54.324;18.558;2023-09-08T17:17:37;22.10;99.90
42913;DHT22;50720;54.324;18.558;2023-09-08T17:20:25;22.00;99.90
42913;DHT22;50720;54.324;18.558;2023-09-08T17:23:14;21.70;99.90
42913;DHT22;50720;54.324;18.558;2023-09-08T17:26:01;21.70;99.90
42913;DHT22;50720;54.324;18.558;2023-09-08T17:28:48;21.70;99.90